sensor_id;sensor_type;location;lat;lon;timestamp;pressure;altitude;pressure_sealevel;temperature;humidity
16834;BME280;8533;48.426;10.868;2024-03-29T00:01:29;94755.56;;;4.23;100.00
16834;BME280;8533;48.426;10.868;2024-03-29T00:03:55;94755.88;;;4.27;100.00
16834;BME280;8533;48.426;10.868;2024-03-29T00:06:20;94699.81;;;3.94;100.00
16834;BME280;8533;48.426;10.868;2024-03-29T00:08:45;94748.91;;;4.28;100.00
16834;BME280;8533;48.426;10.868;2024-03-29T00:11:11;94742.16;;;4.27;100.00
16834;BME280;8533;48.426;10.868;2024-03-29T00:13:36;94712.94;;;4.09;100.00
16834;BME280;8533;48.426;10.868;2024-03-29T00:16:01;94670.75;;;3.87;100.00
16834;BME280;8533;48.426;10.868;2024-03-29T00:18:27;94723.66;;;4.18;100.00
16834;BME280;8533;48.426;10.868;2024-03-29T00:20:52;94657.69;;;3.77;100.00
16834;BME280;8533;48.426;10.868;2024-03-29T00:23:18;94746.06;;;4.29;100.00
16834;BME280;8533;48.426;10.868;2024-03-29T00:25:43;94720.91;;;4.25;100.00
16834;BME280;8533;48.426;10.868;2024-03-29T00:28:08;94744.78;;;4.32;100.00
16834;BME280;8533;48.426;10.868;2024-03-29T00:30:33;94680.09;;;3.88;100.00
16834;BME280;8533;48.426;10.868;2024-03-29T00:32:59;94745.09;;;4.13;100.00
16834;BME280;8533;48.426;10.868;2024-03-29T00:35:24;94619.63;;;3.34;100.00
16834;BME280;8533;48.426;10.868;2024-03-29T00:37:50;94757.91;;;4.25;100.00
16834;BME280;8533;48.426;10.868;2024-03-29T00:40:16;94728.53;;;4.14;100.00
16834;BME280;8533;48.426;10.868;2024-03-29T00:42:41;94739.97;;;4.18;100.00
16834;BME280;8533;48.426;10.868;2024-03-29T00:45:07;94740.56;;;4.26;100.00
16834;BME280;8533;48.426;10.868;2024-03-29T00:47:32;94685.91;;;4.00;100.00
16834;BME280;8533;48.426;10.868;2024-03-29T00:49:58;94729.44;;;4.25;100.00
16834;BME280;8533;48.426;10.868;2024-03-29T00:52:23;94659.91;;;3.90;100.00
16834;BME280;8533;48.426;10.868;2024-03-29T00:54:48;94699.97;;;4.26;100.00
16834;BME280;8533;48.426;10.868;2024-03-29T00:57:15;94695.09;;;4.30;100.00
16834;BME280;8533;48.426;10.868;2024-03-29T00:59:40;94700.00;;;4.31;100.00
16834;BME280;8533;48.426;10.868;2024-03-29T01:02:08;94609.53;;;3.71;100.00
16834;BME280;8533;48.426;10.868;2024-03-29T01:04:33;94653.63;;;4.03;100.00
16834;BME280;8533;48.426;10.868;2024-03-29T01:06:58;94689.28;;;4.22;100.00
16834;BME280;8533;48.426;10.868;2024-03-29T01:09:24;94634.06;;;3.90;100.00
16834;BME280;8533;48.426;10.868;2024-03-29T01:11:50;94607.03;;;3.59;100.00
16834;BME280;8533;48.426;10.868;2024-03-29T01:14:16;94651.28;;;4.01;100.00
16834;BME280;8533;48.426;10.868;2024-03-29T01:16:41;94606.59;;;3.84;100.00
16834;BME280;8533;48.426;10.868;2024-03-29T01:19:06;94623.84;;;4.00;100.00
16834;BME280;8533;48.426;10.868;2024-03-29T01:21:33;94601.00;;;3.92;100.00
16834;BME280;8533;48.426;10.868;2024-03-29T01:23:59;94610.09;;;3.95;100.00
16834;BME280;8533;48.426;10.868;2024-03-29T01:26:24;94590.94;;;3.74;100.00
16834;BME280;8533;48.426;10.868;2024-03-29T01:28:50;94626.94;;;3.97;100.00
16834;BME280;8533;48.426;10.868;2024-03-29T01:31:15;94564.31;;;3.52;100.00
16834;BME280;8533;48.426;10.868;2024-03-29T01:33:40;94524.97;;;3.28;100.00
16834;BME280;8533;48.426;10.868;2024-03-29T01:36:09;94623.13;;;4.05;100.00
16834;BME280;8533;48.426;10.868;2024-03-29T01:38:34;94595.44;;;3.83;100.00
16834;BME280;8533;48.426;10.868;2024-03-29T01:41:00;94632.63;;;3.99;100.00
16834;BME280;8533;48.426;10.868;2024-03-29T01:43:25;94544.59;;;3.45;100.00
16834;BME280;8533;48.426;10.868;2024-03-29T01:45:54;94626.31;;;3.90;100.00
16834;BME280;8533;48.426;10.868;2024-03-29T01:48:21;94428.72;;;2.72;100.00
16834;BME280;8533;48.426;10.868;2024-03-29T01:50:47;94570.31;;;3.57;100.00
16834;BME280;8533;48.426;10.868;2024-03-29T01:53:14;94596.53;;;3.66;100.00
16834;BME280;8533;48.426;10.868;2024-03-29T01:55:41;94625.66;;;3.78;100.00
16834;BME280;8533;48.426;10.868;2024-03-29T01:58:09;94414.78;;;2.51;100.00
16834;BME280;8533;48.426;10.868;2024-03-29T02:00:36;94539.41;;;3.24;100.00
16834;BME280;8533;48.426;10.868;2024-03-29T02:03:07;94628.19;;;3.73;100.00
16834;BME280;8533;48.426;10.868;2024-03-29T02:05:39;94612.22;;;3.59;100.00
16834;BME280;8533;48.426;10.868;2024-03-29T02:08:06;94643.75;;;3.39;100.00
16834;BME280;8533;48.426;10.868;2024-03-29T02:10:32;94638.28;;;3.58;100.00
16834;BME280;8533;48.426;10.868;2024-03-29T02:12:57;94622.41;;;3.49;100.00
16834;BME280;8533;48.426;10.868;2024-03-29T02:15:22;94631.81;;;3.55;100.00
16834;BME280;8533;48.426;10.868;2024-03-29T02:17:48;94618.44;;;3.41;100.00
16834;BME280;8533;48.426;10.868;2024-03-29T02:20:13;94621.34;;;3.45;100.00
16834;BME280;8533;48.426;10.868;2024-03-29T02:22:46;94607.44;;;3.29;100.00
16834;BME280;8533;48.426;10.868;2024-03-29T02:25:12;94618.38;;;3.36;100.00
16834;BME280;8533;48.426;10.868;2024-03-29T02:27:38;94561.81;;;3.01;100.00
16834;BME280;8533;48.426;10.868;2024-03-29T02:30:04;94531.63;;;2.85;100.00
16834;BME280;8533;48.426;10.868;2024-03-29T02:32:29;94585.03;;;3.18;100.00
16834;BME280;8533;48.426;10.868;2024-03-29T02:34:54;94605.00;;;3.39;100.00
16834;BME280;8533;48.426;10.868;2024-03-29T02:37:20;94533.13;;;2.98;100.00
16834;BME280;8533;48.426;10.868;2024-03-29T02:39:45;94514.16;;;2.92;100.00
16834;BME280;8533;48.426;10.868;2024-03-29T02:42:10;94574.31;;;3.26;100.00
16834;BME280;8533;48.426;10.868;2024-03-29T02:44:35;94572.06;;;3.52;100.00
16834;BME280;8533;48.426;10.868;2024-03-29T02:47:01;94607.00;;;3.76;100.00
16834;BME280;8533;48.426;10.868;2024-03-29T02:49:26;94563.94;;;3.43;100.00
16834;BME280;8533;48.426;10.868;2024-03-29T02:51:51;94601.41;;;3.62;100.00
16834;BME280;8533;48.426;10.868;2024-03-29T02:54:18;94601.22;;;3.69;100.00
16834;BME280;8533;48.426;10.868;2024-03-29T02:56:43;94615.84;;;3.80;100.00
16834;BME280;8533;48.426;10.868;2024-03-29T02:59:09;94643.81;;;3.83;100.00
16834;BME280;8533;48.426;10.868;2024-03-29T03:01:34;94549.16;;;3.38;100.00
16834;BME280;8533;48.426;10.868;2024-03-29T03:03:59;94607.81;;;3.60;100.00
16834;BME280;8533;48.426;10.868;2024-03-29T03:06:24;94614.34;;;3.62;100.00
16834;BME280;8533;48.426;10.868;2024-03-29T03:08:50;94606.22;;;3.54;100.00
16834;BME280;8533;48.426;10.868;2024-03-29T03:11:34;94616.69;;;3.64;100.00
16834;BME280;8533;48.426;10.868;2024-03-29T03:13:59;94592.31;;;3.38;100.00
16834;BME280;8533;48.426;10.868;2024-03-29T03:16:24;94631.09;;;3.60;100.00
16834;BME280;8533;48.426;10.868;2024-03-29T03:18:50;94307.78;;;1.48;100.00
16834;BME280;8533;48.426;10.868;2024-03-29T03:21:16;94597.22;;;3.39;100.00
16834;BME280;8533;48.426;10.868;2024-03-29T03:23:41;94534.19;;;3.02;100.00
16834;BME280;8533;48.426;10.868;2024-03-29T03:26:06;94522.28;;;3.01;100.00
16834;BME280;8533;48.426;10.868;2024-03-29T03:28:32;94344.19;;;1.85;100.00
16834;BME280;8533;48.426;10.868;2024-03-29T03:30:57;94582.75;;;3.38;100.00
16834;BME280;8533;48.426;10.868;2024-03-29T03:33:22;94591.50;;;3.37;100.00
16834;BME280;8533;48.426;10.868;2024-03-29T03:35:48;94563.34;;;3.19;100.00
16834;BME280;8533;48.426;10.868;2024-03-29T03:38:14;94573.59;;;3.31;100.00
16834;BME280;8533;48.426;10.868;2024-03-29T03:40:40;94572.19;;;3.40;100.00
16834;BME280;8533;48.426;10.868;2024-03-29T03:43:06;94554.03;;;3.18;100.00
16834;BME280;8533;48.426;10.868;2024-03-29T03:45:39;94551.00;;;3.21;100.00
16834;BME280;8533;48.426;10.868;2024-03-29T03:48:06;94585.09;;;3.40;100.00
16834;BME280;8533;48.426;10.868;2024-03-29T03:50:32;94599.66;;;3.46;100.00
16834;BME280;8533;48.426;10.868;2024-03-29T03:52:57;94589.78;;;3.43;100.00
16834;BME280;8533;48.426;10.868;2024-03-29T03:55:23;94592.84;;;3.40;100.00
16834;BME280;8533;48.426;10.868;2024-03-29T03:57:49;94545.63;;;3.06;100.00
16834;BME280;8533;48.426;10.868;2024-03-29T04:00:14;94536.44;;;3.15;100.00
16834;BME280;8533;48.426;10.868;2024-03-29T04:02:40;94542.09;;;3.12;100.00
16834;BME280;8533;48.426;10.868;2024-03-29T04:05:06;94551.34;;;3.08;100.00
16834;BME280;8533;48.426;10.868;2024-03-29T04:07:32;94567.03;;;3.23;100.00
16834;BME280;8533;48.426;10.868;2024-03-29T04:09:57;94562.81;;;3.17;100.00
16834;BME280;8533;48.426;10.868;2024-03-29T04:12:22;94523.41;;;2.88;100.00
16834;BME280;8533;48.426;10.868;2024-03-29T04:14:48;94526.31;;;2.92;100.00
16834;BME280;8533;48.426;10.868;2024-03-29T04:17:13;94542.13;;;3.17;100.00
16834;BME280;8533;48.426;10.868;2024-03-29T04:19:39;94359.72;;;1.90;100.00
16834;BME280;8533;48.426;10.868;2024-03-29T04:22:05;94547.03;;;2.97;100.00
16834;BME280;8533;48.426;10.868;2024-03-29T04:24:30;94524.03;;;2.95;100.00
16834;BME280;8533;48.426;10.868;2024-03-29T04:26:56;94553.38;;;3.06;100.00
16834;BME280;8533;48.426;10.868;2024-03-29T04:29:21;94578.47;;;3.11;100.00
16834;BME280;8533;48.426;10.868;2024-03-29T04:31:47;94555.00;;;3.12;100.00
16834;BME280;8533;48.426;10.868;2024-03-29T04:34:12;94435.25;;;2.41;100.00
16834;BME280;8533;48.426;10.868;2024-03-29T04:36:37;94507.34;;;3.03;100.00
16834;BME280;8533;48.426;10.868;2024-03-29T04:39:03;94527.34;;;3.29;100.00
16834;BME280;8533;48.426;10.868;2024-03-29T04:41:29;94529.59;;;3.26;100.00
16834;BME280;8533;48.426;10.868;2024-03-29T04:43:59;94471.78;;;2.88;100.00
16834;BME280;8533;48.426;10.868;2024-03-29T04:46:24;94480.97;;;3.01;100.00
16834;BME280;8533;48.426;10.868;2024-03-29T04:48:50;94545.28;;;3.41;100.00
16834;BME280;8533;48.426;10.868;2024-03-29T04:51:15;94425.97;;;2.79;100.00
16834;BME280;8533;48.426;10.868;2024-03-29T04:53:40;94467.03;;;3.02;100.00
16834;BME280;8533;48.426;10.868;2024-03-29T04:56:06;94556.38;;;3.58;100.00
16834;BME280;8533;48.426;10.868;2024-03-29T04:58:32;94538.63;;;3.67;100.00
16834;BME280;8533;48.426;10.868;2024-03-29T05:00:57;94490.75;;;3.37;100.00
16834;BME280;8533;48.426;10.868;2024-03-29T05:03:23;94500.09;;;3.65;100.00
16834;BME280;8533;48.426;10.868;2024-03-29T05:05:52;94522.50;;;3.81;100.00
16834;BME280;8533;48.426;10.868;2024-03-29T05:08:18;94498.28;;;3.66;100.00
16834;BME280;8533;48.426;10.868;2024-03-29T05:10:45;94543.03;;;3.88;100.00
16834;BME280;8533;48.426;10.868;2024-03-29T05:13:10;94499.44;;;3.75;100.00
16834;BME280;8533;48.426;10.868;2024-03-29T05:15:35;94499.38;;;3.70;100.00
16834;BME280;8533;48.426;10.868;2024-03-29T05:18:02;94535.97;;;4.05;100.00
16834;BME280;8533;48.426;10.868;2024-03-29T05:20:27;94535.69;;;4.07;100.00
16834;BME280;8533;48.426;10.868;2024-03-29T05:22:53;94414.28;;;3.41;100.00
16834;BME280;8533;48.426;10.868;2024-03-29T05:25:18;94542.59;;;4.23;100.00
16834;BME280;8533;48.426;10.868;2024-03-29T05:27:43;94480.97;;;3.88;100.00
16834;BME280;8533;48.426;10.868;2024-03-29T05:30:08;94548.09;;;4.32;100.00
16834;BME280;8533;48.426;10.868;2024-03-29T05:32:38;94542.06;;;3.94;100.00
16834;BME280;8533;48.426;10.868;2024-03-29T05:35:03;94515.31;;;4.10;100.00
16834;BME280;8533;48.426;10.868;2024-03-29T05:37:29;94557.97;;;4.35;100.00
16834;BME280;8533;48.426;10.868;2024-03-29T05:39:54;94543.44;;;4.29;100.00
16834;BME280;8533;48.426;10.868;2024-03-29T05:42:33;94511.91;;;4.05;100.00
16834;BME280;8533;48.426;10.868;2024-03-29T05:45:00;94595.69;;;4.52;100.00
16834;BME280;8533;48.426;10.868;2024-03-29T05:47:25;94559.03;;;4.39;100.00
16834;BME280;8533;48.426;10.868;2024-03-29T05:49:50;94573.09;;;4.48;100.00
16834;BME280;8533;48.426;10.868;2024-03-29T05:52:16;94576.22;;;4.50;100.00
16834;BME280;8533;48.426;10.868;2024-03-29T05:54:42;94577.34;;;4.59;100.00
16834;BME280;8533;48.426;10.868;2024-03-29T05:57:08;94573.50;;;4.62;100.00
16834;BME280;8533;48.426;10.868;2024-03-29T05:59:34;94535.94;;;4.59;100.00
16834;BME280;8533;48.426;10.868;2024-03-29T06:01:59;94548.19;;;4.69;100.00
16834;BME280;8533;48.426;10.868;2024-03-29T06:04:25;94559.91;;;4.81;100.00
16834;BME280;8533;48.426;10.868;2024-03-29T06:07:00;94573.75;;;4.97;100.00
16834;BME280;8533;48.426;10.868;2024-03-29T06:09:25;94516.03;;;4.65;100.00
16834;BME280;8533;48.426;10.868;2024-03-29T06:11:51;94572.75;;;5.03;100.00
16834;BME280;8533;48.426;10.868;2024-03-29T06:14:17;94568.41;;;5.09;100.00
16834;BME280;8533;48.426;10.868;2024-03-29T06:17:01;94576.72;;;5.11;100.00
16834;BME280;8533;48.426;10.868;2024-03-29T06:19:44;94561.66;;;5.03;100.00
16834;BME280;8533;48.426;10.868;2024-03-29T06:22:10;94558.78;;;5.04;100.00
16834;BME280;8533;48.426;10.868;2024-03-29T06:24:35;94520.66;;;4.94;100.00
16834;BME280;8533;48.426;10.868;2024-03-29T06:27:01;94544.09;;;5.15;100.00
16834;BME280;8533;48.426;10.868;2024-03-29T06:29:26;94554.78;;;5.23;100.00
16834;BME280;8533;48.426;10.868;2024-03-29T06:31:51;94518.63;;;5.02;100.00
16834;BME280;8533;48.426;10.868;2024-03-29T06:34:17;94560.25;;;5.27;100.00
16834;BME280;8533;48.426;10.868;2024-03-29T06:36:42;94492.13;;;4.89;100.00
16834;BME280;8533;48.426;10.868;2024-03-29T06:39:07;94482.22;;;4.81;100.00
16834;BME280;8533;48.426;10.868;2024-03-29T06:41:33;94564.69;;;5.36;100.00
16834;BME280;8533;48.426;10.868;2024-03-29T06:43:59;94565.47;;;5.37;100.00
16834;BME280;8533;48.426;10.868;2024-03-29T06:46:24;94571.78;;;5.51;100.00
16834;BME280;8533;48.426;10.868;2024-03-29T06:48:49;94554.69;;;5.55;100.00
16834;BME280;8533;48.426;10.868;2024-03-29T06:51:14;94563.00;;;5.62;100.00
16834;BME280;8533;48.426;10.868;2024-03-29T06:53:40;94590.41;;;5.90;100.00
16834;BME280;8533;48.426;10.868;2024-03-29T06:56:06;94548.03;;;5.80;100.00
16834;BME280;8533;48.426;10.868;2024-03-29T06:58:32;94564.47;;;6.00;100.00
16834;BME280;8533;48.426;10.868;2024-03-29T07:00:58;94559.56;;;6.04;100.00
16834;BME280;8533;48.426;10.868;2024-03-29T07:03:24;94560.34;;;6.04;100.00
16834;BME280;8533;48.426;10.868;2024-03-29T07:05:49;94592.63;;;6.39;100.00
16834;BME280;8533;48.426;10.868;2024-03-29T07:08:16;94603.31;;;6.58;100.00
16834;BME280;8533;48.426;10.868;2024-03-29T07:10:42;94589.84;;;6.71;100.00
16834;BME280;8533;48.426;10.868;2024-03-29T07:13:07;94573.72;;;6.74;100.00
16834;BME280;8533;48.426;10.868;2024-03-29T07:15:33;94566.44;;;6.71;100.00
16834;BME280;8533;48.426;10.868;2024-03-29T07:17:59;94587.78;;;7.13;100.00
16834;BME280;8533;48.426;10.868;2024-03-29T07:20:25;94569.50;;;7.39;100.00
16834;BME280;8533;48.426;10.868;2024-03-29T07:22:51;94559.09;;;7.49;96.07
16834;BME280;8533;48.426;10.868;2024-03-29T07:25:16;94505.66;;;6.77;94.78
16834;BME280;8533;48.426;10.868;2024-03-29T07:27:42;94525.28;;;7.44;95.49
16834;BME280;8533;48.426;10.868;2024-03-29T07:30:07;94566.00;;;7.84;92.54
16834;BME280;8533;48.426;10.868;2024-03-29T07:32:33;94562.00;;;8.07;92.44
16834;BME280;8533;48.426;10.868;2024-03-29T07:34:59;94596.00;;;8.30;91.37
16834;BME280;8533;48.426;10.868;2024-03-29T07:37:25;94575.97;;;8.31;89.78
16834;BME280;8533;48.426;10.868;2024-03-29T07:39:50;94609.19;;;8.59;88.63
16834;BME280;8533;48.426;10.868;2024-03-29T07:42:16;94609.66;;;8.66;89.37
16834;BME280;8533;48.426;10.868;2024-03-29T07:44:42;94611.22;;;8.62;88.01
16834;BME280;8533;48.426;10.868;2024-03-29T07:47:07;94599.88;;;8.87;88.21
16834;BME280;8533;48.426;10.868;2024-03-29T07:49:32;94634.94;;;9.05;89.36
16834;BME280;8533;48.426;10.868;2024-03-29T07:51:58;94418.53;;;7.64;91.53
16834;BME280;8533;48.426;10.868;2024-03-29T07:54:24;94606.03;;;8.62;93.73
16834;BME280;8533;48.426;10.868;2024-03-29T07:56:49;94620.09;;;8.66;93.89
16834;BME280;8533;48.426;10.868;2024-03-29T07:59:15;94561.75;;;8.08;93.63
16834;BME280;8533;48.426;10.868;2024-03-29T08:01:42;94640.22;;;8.56;97.03
16834;BME280;8533;48.426;10.868;2024-03-29T08:04:08;94637.38;;;8.47;94.43
16834;BME280;8533;48.426;10.868;2024-03-29T08:06:33;94635.63;;;8.32;94.44
16834;BME280;8533;48.426;10.868;2024-03-29T08:08:58;94630.59;;;8.46;98.96
16834;BME280;8533;48.426;10.868;2024-03-29T08:11:24;94612.69;;;8.29;97.34
16834;BME280;8533;48.426;10.868;2024-03-29T08:13:49;94614.75;;;8.43;100.00
16834;BME280;8533;48.426;10.868;2024-03-29T08:16:14;94584.00;;;7.75;100.00
16834;BME280;8533;48.426;10.868;2024-03-29T08:18:42;94636.00;;;7.90;100.00
16834;BME280;8533;48.426;10.868;2024-03-29T08:21:07;94617.78;;;7.90;100.00
16834;BME280;8533;48.426;10.868;2024-03-29T08:23:37;94633.66;;;7.94;100.00
16834;BME280;8533;48.426;10.868;2024-03-29T08:26:04;94634.44;;;7.94;100.00
16834;BME280;8533;48.426;10.868;2024-03-29T08:28:29;94614.63;;;7.98;100.00
16834;BME280;8533;48.426;10.868;2024-03-29T08:31:00;94627.09;;;8.07;100.00
16834;BME280;8533;48.426;10.868;2024-03-29T08:33:26;94631.59;;;7.86;100.00
16834;BME280;8533;48.426;10.868;2024-03-29T08:35:52;94608.75;;;7.68;100.00
16834;BME280;8533;48.426;10.868;2024-03-29T08:38:17;94655.50;;;7.98;100.00
16834;BME280;8533;48.426;10.868;2024-03-29T08:40:43;94425.09;;;6.82;100.00
16834;BME280;8533;48.426;10.868;2024-03-29T08:43:11;94618.50;;;8.06;100.00
16834;BME280;8533;48.426;10.868;2024-03-29T08:45:36;94625.47;;;8.26;100.00
16834;BME280;8533;48.426;10.868;2024-03-29T08:48:06;94586.22;;;8.07;99.53
16834;BME280;8533;48.426;10.868;2024-03-29T08:50:32;94587.53;;;8.10;100.00
16834;BME280;8533;48.426;10.868;2024-03-29T08:52:58;94423.66;;;7.25;100.00
16834;BME280;8533;48.426;10.868;2024-03-29T08:55:23;94601.41;;;8.49;100.00
16834;BME280;8533;48.426;10.868;2024-03-29T08:57:48;94530.13;;;8.30;100.00
16834;BME280;8533;48.426;10.868;2024-03-29T09:00:14;94602.84;;;8.70;100.00
16834;BME280;8533;48.426;10.868;2024-03-29T09:02:39;94580.16;;;8.71;100.00
16834;BME280;8533;48.426;10.868;2024-03-29T09:05:05;94594.13;;;8.85;99.71
16834;BME280;8533;48.426;10.868;2024-03-29T09:07:30;94600.06;;;8.96;97.63
16834;BME280;8533;48.426;10.868;2024-03-29T09:09:56;94600.06;;;8.96;99.33
16834;BME280;8533;48.426;10.868;2024-03-29T09:12:21;94500.72;;;8.19;99.47
16834;BME280;8533;48.426;10.868;2024-03-29T09:14:46;94561.16;;;8.70;100.00
16834;BME280;8533;48.426;10.868;2024-03-29T09:17:12;94549.31;;;8.49;100.00
16834;BME280;8533;48.426;10.868;2024-03-29T09:19:37;94567.94;;;9.00;100.00
16834;BME280;8533;48.426;10.868;2024-03-29T09:22:02;94557.69;;;9.14;100.00
16834;BME280;8533;48.426;10.868;2024-03-29T09:24:27;94524.03;;;9.12;99.91
16834;BME280;8533;48.426;10.868;2024-03-29T09:26:53;94509.81;;;9.00;97.09
16834;BME280;8533;48.426;10.868;2024-03-29T09:29:18;94525.69;;;9.03;95.03
16834;BME280;8533;48.426;10.868;2024-03-29T09:31:46;94530.81;;;9.13;94.50
16834;BME280;8533;48.426;10.868;2024-03-29T09:34:11;94523.03;;;9.08;92.95
16834;BME280;8533;48.426;10.868;2024-03-29T09:36:36;94550.75;;;9.28;93.49
16834;BME280;8533;48.426;10.868;2024-03-29T09:39:03;94554.06;;;9.39;89.88
16834;BME280;8533;48.426;10.868;2024-03-29T09:41:31;94327.50;;;7.98;92.16
16834;BME280;8533;48.426;10.868;2024-03-29T09:43:59;94553.84;;;9.59;95.53
16834;BME280;8533;48.426;10.868;2024-03-29T09:46:25;94604.97;;;9.89;98.06
16834;BME280;8533;48.426;10.868;2024-03-29T09:48:53;94514.94;;;9.34;96.17
16834;BME280;8533;48.426;10.868;2024-03-29T09:51:21;94612.50;;;10.14;96.38
16834;BME280;8533;48.426;10.868;2024-03-29T09:53:47;94644.22;;;10.31;95.78
16834;BME280;8533;48.426;10.868;2024-03-29T09:56:13;94636.34;;;10.93;90.78
16834;BME280;8533;48.426;10.868;2024-03-29T09:58:38;94603.53;;;10.63;90.55
16834;BME280;8533;48.426;10.868;2024-03-29T10:01:05;94622.91;;;11.18;87.17
16834;BME280;8533;48.426;10.868;2024-03-29T10:03:32;94638.25;;;11.71;85.54
16834;BME280;8533;48.426;10.868;2024-03-29T10:06:00;94636.69;;;11.56;88.23
16834;BME280;8533;48.426;10.868;2024-03-29T10:08:30;94617.81;;;11.40;86.56
16834;BME280;8533;48.426;10.868;2024-03-29T10:10:56;94634.63;;;11.85;86.14
16834;BME280;8533;48.426;10.868;2024-03-29T10:13:21;94628.31;;;12.41;86.74
16834;BME280;8533;48.426;10.868;2024-03-29T10:15:49;94646.25;;;11.93;82.37
16834;BME280;8533;48.426;10.868;2024-03-29T10:18:15;94612.88;;;12.26;83.14
16834;BME280;8533;48.426;10.868;2024-03-29T10:20:43;94629.47;;;12.49;83.70
16834;BME280;8533;48.426;10.868;2024-03-29T10:23:09;94614.41;;;12.54;82.16
16834;BME280;8533;48.426;10.868;2024-03-29T10:25:34;94593.13;;;12.92;81.10
16834;BME280;8533;48.426;10.868;2024-03-29T10:28:00;94596.38;;;13.33;76.27
16834;BME280;8533;48.426;10.868;2024-03-29T10:30:29;94613.63;;;13.26;81.62
16834;BME280;8533;48.426;10.868;2024-03-29T10:32:57;94602.00;;;13.18;80.61
16834;BME280;8533;48.426;10.868;2024-03-29T10:35:25;94466.06;;;12.26;80.46
16834;BME280;8533;48.426;10.868;2024-03-29T10:37:52;94641.56;;;13.08;79.02
16834;BME280;8533;48.426;10.868;2024-03-29T10:40:18;94577.50;;;13.09;80.75
16834;BME280;8533;48.426;10.868;2024-03-29T10:42:46;94595.44;;;12.08;81.28
16834;BME280;8533;48.426;10.868;2024-03-29T10:45:14;94613.66;;;12.40;83.72
16834;BME280;8533;48.426;10.868;2024-03-29T10:47:41;94581.53;;;12.21;86.54
16834;BME280;8533;48.426;10.868;2024-03-29T10:50:11;94603.09;;;12.32;86.01
16834;BME280;8533;48.426;10.868;2024-03-29T10:52:38;94546.28;;;11.72;85.57
16834;BME280;8533;48.426;10.868;2024-03-29T10:55:04;94604.06;;;11.95;86.56
16834;BME280;8533;48.426;10.868;2024-03-29T10:57:30;94598.16;;;11.89;86.04
16834;BME280;8533;48.426;10.868;2024-03-29T11:00:08;94641.63;;;12.04;87.38
16834;BME280;8533;48.426;10.868;2024-03-29T11:02:49;94613.28;;;12.06;87.62
16834;BME280;8533;48.426;10.868;2024-03-29T11:05:18;94590.38;;;11.84;92.00
16834;BME280;8533;48.426;10.868;2024-03-29T11:07:44;94603.75;;;12.10;93.03
16834;BME280;8533;48.426;10.868;2024-03-29T11:10:15;94618.44;;;12.11;91.61
16834;BME280;8533;48.426;10.868;2024-03-29T11:15:30;94605.69;;;12.18;96.47
16834;BME280;8533;48.426;10.868;2024-03-29T11:17:56;94567.66;;;11.93;96.65
16834;BME280;8533;48.426;10.868;2024-03-29T11:20:25;94549.41;;;12.02;96.17
16834;BME280;8533;48.426;10.868;2024-03-29T11:23:02;94585.75;;;12.58;99.20
16834;BME280;8533;48.426;10.868;2024-03-29T11:25:44;94595.59;;;12.75;94.64
16834;BME280;8533;48.426;10.868;2024-03-29T11:28:14;94560.41;;;12.53;96.83
16834;BME280;8533;48.426;10.868;2024-03-29T11:30:45;94311.59;;;10.72;93.95
16834;BME280;8533;48.426;10.868;2024-03-29T11:33:32;94598.06;;;12.57;91.90
16834;BME280;8533;48.426;10.868;2024-03-29T11:35:59;94589.53;;;12.52;93.37
16834;BME280;8533;48.426;10.868;2024-03-29T11:38:33;94614.03;;;12.47;93.45
16834;BME280;8533;48.426;10.868;2024-03-29T11:41:06;94577.66;;;12.68;93.17
16834;BME280;8533;48.426;10.868;2024-03-29T11:43:32;94546.81;;;12.74;99.14
16834;BME280;8533;48.426;10.868;2024-03-29T11:46:02;94544.94;;;12.88;96.57
16834;BME280;8533;48.426;10.868;2024-03-29T11:48:29;94542.00;;;13.12;96.62
16834;BME280;8533;48.426;10.868;2024-03-29T11:50:56;94514.50;;;13.09;95.45
16834;BME280;8533;48.426;10.868;2024-03-29T11:53:22;94520.59;;;12.96;91.62
16834;BME280;8533;48.426;10.868;2024-03-29T11:55:48;94505.44;;;12.93;93.25
16834;BME280;8533;48.426;10.868;2024-03-29T11:58:18;94500.31;;;12.66;94.88
16834;BME280;8533;48.426;10.868;2024-03-29T12:00:44;94492.28;;;12.84;96.65
16834;BME280;8533;48.426;10.868;2024-03-29T12:03:12;94503.06;;;13.05;95.71
16834;BME280;8533;48.426;10.868;2024-03-29T12:05:37;94485.91;;;12.77;96.18
16834;BME280;8533;48.426;10.868;2024-03-29T12:08:03;94488.66;;;13.25;91.60
16834;BME280;8533;48.426;10.868;2024-03-29T12:10:29;94440.56;;;13.47;89.45
16834;BME280;8533;48.426;10.868;2024-03-29T12:12:58;94514.56;;;13.88;90.07
16834;BME280;8533;48.426;10.868;2024-03-29T12:15:24;94490.66;;;14.24;87.90
16834;BME280;8533;48.426;10.868;2024-03-29T12:18:01;94532.13;;;14.36;84.45
16834;BME280;8533;48.426;10.868;2024-03-29T12:20:36;94472.41;;;14.02;85.32
16834;BME280;8533;48.426;10.868;2024-03-29T12:23:03;94479.16;;;13.77;88.69
16834;BME280;8533;48.426;10.868;2024-03-29T12:25:30;94485.88;;;13.52;90.35
16834;BME280;8533;48.426;10.868;2024-03-29T12:27:57;94465.56;;;13.84;89.41
16834;BME280;8533;48.426;10.868;2024-03-29T12:30:23;94444.56;;;14.01;91.57
16834;BME280;8533;48.426;10.868;2024-03-29T12:32:48;94472.59;;;14.66;88.74
16834;BME280;8533;48.426;10.868;2024-03-29T12:35:15;94517.03;;;14.59;86.91
16834;BME280;8533;48.426;10.868;2024-03-29T12:37:48;94498.28;;;14.60;89.15
16834;BME280;8533;48.426;10.868;2024-03-29T12:40:18;94411.59;;;14.12;86.85
16834;BME280;8533;48.426;10.868;2024-03-29T12:42:48;94463.28;;;14.68;87.14
16834;BME280;8533;48.426;10.868;2024-03-29T12:45:14;94408.09;;;14.42;86.36
16834;BME280;8533;48.426;10.868;2024-03-29T12:47:39;94452.94;;;14.63;88.77
16834;BME280;8533;48.426;10.868;2024-03-29T12:50:05;94445.63;;;14.77;86.93
16834;BME280;8533;48.426;10.868;2024-03-29T12:52:41;94445.78;;;14.81;87.90
16834;BME280;8533;48.426;10.868;2024-03-29T12:55:07;94450.31;;;14.55;86.62
16834;BME280;8533;48.426;10.868;2024-03-29T12:57:34;94451.88;;;15.19;85.12
16834;BME280;8533;48.426;10.868;2024-03-29T13:00:00;94388.44;;;15.33;82.91
16834;BME280;8533;48.426;10.868;2024-03-29T13:02:26;94386.94;;;15.32;83.19